Time;durP1;ratioP1;P1;durP2;ratioP2;P2;SDS_P1;SDS_P2;PMS_P1;PMS_P2;Temp;Humidity;BMP_temperature;BMP_pressure;BME280_temperature;BME280_humidity;BME280_pressure;Samples;Min_cycle;Max_cycle;Signal;HPM_P1;HPM_P2
2023/02/02 00:01:44;;;;;;;4.53;1.50;;;4.60;99.90;;;;;;4977611;29;20424;-56
2023/02/02 00:04:19;;;;;;;6.70;1.67;;;4.70;99.90;;;;;;4977331;29;20464;-56
2023/02/02 00:06:48;;;;;;;17.87;3.00;;;4.80;99.90;;;;;;4977479;29;20435;-56
2023/02/02 00:09:18;;;;;;;3.00;1.87;;;4.80;99.90;;;;;;4976821;29;20448;-56
2023/02/02 00:11:47;;;;;;;2.90;0.90;;;4.90;99.90;;;;;;4976771;29;20474;-59
2023/02/02 00:14:14;;;;;;;9.50;2.30;;;4.90;99.90;;;;;;4976400;29;20468;-55
2023/02/02 00:16:43;;;;;;;3.63;1.03;;;4.90;99.90;;;;;;4977265;29;20454;-56
2023/02/02 00:19:12;;;;;;;5.03;1.43;;;4.90;99.90;;;;;;4977371;29;20483;-53
2023/02/02 00:21:42;;;;;;;6.40;1.90;;;5.00;99.90;;;;;;4977365;29;20463;-55
2023/02/02 00:24:12;;;;;;;5.23;3.33;;;5.00;99.90;;;;;;4977502;29;20464;-56
2023/02/02 00:26:41;;;;;;;6.80;2.57;;;5.00;99.90;;;;;;4977689;29;20526;-57
2023/02/02 00:29:13;;;;;;;1.93;1.00;;;5.00;99.90;;;;;;4977340;29;20444;-56
2023/02/02 00:31:40;;;;;;;11.90;4.30;;;5.10;99.90;;;;;;4977486;29;20455;-54
2023/02/02 00:34:07;;;;;;;3.33;1.33;;;5.10;99.90;;;;;;4977131;29;20627;-55
2023/02/02 00:36:34;;;;;;;4.70;1.10;;;5.10;99.90;;;;;;4977383;29;20495;-59
2023/02/02 00:39:00;;;;;;;6.23;2.03;;;5.10;99.90;;;;;;4977433;29;20495;-55
2023/02/02 00:41:31;;;;;;;6.60;2.33;;;5.10;99.90;;;;;;4976935;29;20468;-55
2023/02/02 00:46:42;;;;;;;20.50;2.03;;;5.20;99.90;;;;;;4976502;29;20413;-58
2023/02/02 00:49:10;;;;;;;2.40;2.20;;;5.20;99.90;;;;;;4977038;29;20464;-56
2023/02/02 00:51:46;;;;;;;7.37;2.37;;;5.20;99.90;;;;;;4976924;29;20440;-58
2023/02/02 00:54:14;;;;;;;6.33;1.80;;;5.20;99.90;;;;;;4976969;29;20495;-55
2023/02/02 00:56:43;;;;;;;4.53;1.73;;;5.20;99.90;;;;;;4977101;29;20439;-56
2023/02/02 00:59:09;;;;;;;5.60;2.50;;;5.20;99.90;;;;;;4976919;29;20471;-57
2023/02/02 01:01:36;;;;;;;5.50;1.50;;;5.20;99.90;;;;;;4977012;29;20482;-54
2023/02/02 01:04:03;;;;;;;15.73;2.50;;;5.20;99.90;;;;;;4976478;29;20459;-56
2023/02/02 01:06:30;;;;;;;2.80;0.93;;;5.20;99.90;;;;;;4976773;29;20464;-56
2023/02/02 01:08:57;;;;;;;4.70;1.13;;;5.20;99.90;;;;;;4976669;29;20440;-58
2023/02/02 01:11:25;;;;;;;1.53;1.43;;;5.20;99.90;;;;;;4976752;29;20475;-57
2023/02/02 01:13:53;;;;;;;1.67;1.57;;;5.20;99.90;;;;;;4976473;29;20458;-55
2023/02/02 01:16:21;;;;;;;1.50;1.10;;;5.20;99.90;;;;;;4976754;29;20471;-54
2023/02/02 01:18:48;;;;;;;6.90;1.70;;;5.10;99.90;;;;;;4976730;29;20495;-55
2023/02/02 01:21:14;;;;;;;2.50;0.70;;;5.20;99.90;;;;;;4976539;29;20551;-54
2023/02/02 01:23:41;;;;;;;1.60;1.30;;;5.10;99.90;;;;;;4976318;29;20440;-55
2023/02/02 01:26:10;;;;;;;11.63;7.23;;;5.10;99.90;;;;;;4979860;29;20444;-56
2023/02/02 01:28:39;;;;;;;9.03;2.60;;;5.00;99.90;;;;;;4980161;29;20444;-55
2023/02/02 01:31:09;;;;;;;5.50;1.40;;;5.00;99.90;;;;;;4980416;29;20483;-56
2023/02/02 01:33:36;;;;;;;4.07;1.80;;;5.00;99.90;;;;;;4980159;29;20447;-57
2023/02/02 01:36:06;;;;;;;5.30;1.37;;;5.00;99.90;;;;;;4980159;29;20455;-56
2023/02/02 01:38:33;;;;;;;7.00;2.00;;;5.00;99.90;;;;;;4980073;29;20475;-57
2023/02/02 01:41:00;;;;;;;8.73;1.67;;;4.90;99.90;;;;;;4980251;29;20450;-53
2023/02/02 01:43:29;;;;;;;1.20;0.70;;;4.90;99.90;;;;;;4980288;29;20502;-55
2023/02/02 01:45:57;;;;;;;1.83;1.27;;;5.00;99.90;;;;;;4979721;29;20486;-58
2023/02/02 01:48:29;;;;;;;11.53;2.30;;;5.00;99.90;;;;;;4979618;29;20440;-50
2023/02/02 01:50:59;;;;;;;3.30;1.40;;;5.00;99.90;;;;;;4979800;29;20496;-53
2023/02/02 01:53:27;;;;;;;2.97;1.47;;;5.00;99.90;;;;;;4979518;29;20437;-54
2023/02/02 01:55:55;;;;;;;5.10;2.10;;;5.00;99.90;;;;;;4979547;29;20460;-58
2023/02/02 01:58:25;;;;;;;4.20;0.83;;;4.90;99.90;;;;;;4979614;29;20572;-55
2023/02/02 02:00:53;;;;;;;3.47;1.00;;;5.00;99.90;;;;;;4979148;29;20468;-54
2023/02/02 02:03:22;;;;;;;6.10;1.80;;;5.00;99.90;;;;;;4979607;29;20452;-55
2023/02/02 02:05:56;;;;;;;7.10;1.40;;;5.00;99.90;;;;;;4979476;29;20444;-57
2023/02/02 02:08:29;;;;;;;6.70;1.90;;;5.00;99.90;;;;;;4979376;29;20609;-54
2023/02/02 02:10:56;;;;;;;6.40;1.90;;;5.00;99.90;;;;;;4978894;29;20479;-57
2023/02/02 02:16:17;;;;;;;2.60;1.37;;;5.00;99.90;;;;;;4978893;29;20471;-57
2023/02/02 02:16:21;;;;;;;4.90;1.77;;;5.00;99.90;;;;;;4978830;29;20428;-55
2023/02/02 02:18:59;;;;;;;5.40;2.20;;;5.00;99.90;;;;;;4978487;29;20463;-56
2023/02/02 02:28:47;;;;;;;20.70;2.37;;;5.10;99.90;;;;;;4978726;29;20412;-56
2023/02/02 02:31:51;;;;;;;6.00;1.93;;;5.10;99.90;;;;;;4978725;29;20440;-54
2023/02/02 02:34:26;;;;;;;7.50;2.40;;;5.10;99.90;;;;;;4976001;29;20448;-57
2023/02/02 02:37:02;;;;;;;6.63;1.87;;;5.10;99.90;;;;;;4977918;28;20428;-53
2023/02/02 02:39:36;;;;;;;6.73;2.37;;;5.10;99.90;;;;;;4978684;28;20472;-57
2023/02/02 02:42:09;;;;;;;3.37;1.20;;;5.20;99.90;;;;;;4979162;29;20496;-56
2023/02/02 02:44:36;;;;;;;2.90;1.87;;;5.20;99.90;;;;;;4978477;29;20468;-57
2023/02/02 02:47:03;;;;;;;3.67;1.80;;;5.10;99.90;;;;;;4978624;29;20439;-56
2023/02/02 02:49:32;;;;;;;3.53;1.13;;;5.20;99.90;;;;;;4977977;29;20475;-57
2023/02/02 02:52:00;;;;;;;6.93;1.73;;;5.20;99.90;;;;;;4978360;29;20432;-54
2023/02/02 02:54:31;;;;;;;1.70;1.17;;;5.20;99.90;;;;;;4978555;29;20451;-57
2023/02/02 02:57:18;;;;;;;7.40;0.90;;;5.20;99.90;;;;;;4978475;29;20476;-56
2023/02/02 02:59:55;;;;;;;4.97;1.40;;;5.20;99.90;;;;;;4978423;29;20468;-55
2023/02/02 03:02:34;;;;;;;2.07;1.10;;;5.20;99.90;;;;;;4978012;29;20471;-54
2023/02/02 03:05:13;;;;;;;3.63;1.33;;;5.30;99.90;;;;;;4978662;29;20450;-56
2023/02/02 03:07:44;;;;;;;10.53;2.17;;;5.30;99.90;;;;;;4978156;29;20475;-54
2023/02/02 03:10:14;;;;;;;9.83;1.03;;;5.30;99.90;;;;;;4978478;29;20423;-53
2023/02/02 03:12:45;;;;;;;6.10;1.20;;;5.30;99.90;;;;;;4977982;29;20467;-56
2023/02/02 03:15:13;;;;;;;6.60;2.10;;;5.30;99.90;;;;;;4978232;29;20459;-56
2023/02/02 03:17:42;;;;;;;4.07;1.70;;;5.40;99.90;;;;;;4977783;29;20432;-52
2023/02/02 03:20:11;;;;;;;9.73;0.93;;;5.40;99.90;;;;;;4977886;29;20479;-58
2023/02/02 03:22:38;;;;;;;7.67;1.27;;;5.40;99.90;;;;;;4978124;29;20478;-54
2023/02/02 03:25:20;;;;;;;9.43;4.63;;;5.40;99.90;;;;;;4977619;29;20451;-55
2023/02/02 03:27:57;;;;;;;2.57;0.80;;;5.50;99.90;;;;;;4978223;29;20777;-57
2023/02/02 03:30:30;;;;;;;5.43;1.37;;;5.50;99.90;;;;;;4977719;29;20434;-55
2023/02/02 03:32:57;;;;;;;5.33;1.13;;;5.50;99.90;;;;;;4977370;29;20478;-55
2023/02/02 03:35:27;;;;;;;3.20;1.57;;;5.50;99.90;;;;;;4977319;29;20468;-56
2023/02/02 03:37:53;;;;;;;10.63;1.40;;;5.50;99.90;;;;;;4978110;29;20508;-57
2023/02/02 03:40:20;;;;;;;12.50;3.57;;;5.50;99.90;;;;;;4977733;29;20484;-57
2023/02/02 03:42:47;;;;;;;2.70;0.80;;;5.50;99.90;;;;;;4977350;29;20442;-55
2023/02/02 03:45:14;;;;;;;3.73;1.00;;;5.40;99.90;;;;;;4977450;29;20503;-50
2023/02/02 03:47:41;;;;;;;1.10;1.00;;;5.50;99.90;;;;;;4976992;28;20447;-55
2023/02/02 03:50:09;;;;;;;3.30;1.10;;;5.50;99.90;;;;;;4977191;29;20444;-52
2023/02/02 03:52:37;;;;;;;4.70;1.90;;;5.40;99.90;;;;;;4977320;29;20451;-54
2023/02/02 03:55:06;;;;;;;5.30;2.73;;;5.40;99.90;;;;;;4977665;29;20439;-52
2023/02/02 03:57:42;;;;;;;19.70;1.70;;;5.40;99.90;;;;;;4977625;29;20471;-53
2023/02/02 04:00:10;;;;;;;1.87;1.00;;;5.40;99.90;;;;;;4977553;29;20471;-53
2023/02/02 04:02:36;;;;;;;2.50;0.70;;;5.40;99.90;;;;;;4977253;29;20495;-52
2023/02/02 04:05:04;;;;;;;7.80;1.57;;;5.40;99.90;;;;;;4977304;29;20432;-55
2023/02/02 04:07:31;;;;;;;1.67;0.83;;;5.40;99.90;;;;;;4977337;29;20443;-56
2023/02/02 04:09:59;;;;;;;6.67;0.93;;;5.40;99.90;;;;;;4977125;29;20525;-56
2023/02/02 04:12:26;;;;;;;2.07;1.23;;;5.40;99.90;;;;;;4977411;29;20455;-55
2023/02/02 04:14:55;;;;;;;1.77;1.20;;;5.40;99.90;;;;;;4977252;29;20472;-57
2023/02/02 04:17:22;;;;;;;4.10;1.60;;;5.40;99.90;;;;;;4977073;29;20491;-56
2023/02/02 04:19:51;;;;;;;2.40;1.63;;;5.30;99.90;;;;;;4977213;29;20523;-58
2023/02/02 04:22:18;;;;;;;1.57;0.87;;;5.40;99.90;;;;;;4977164;29;20542;-54
2023/02/02 04:24:48;;;;;;;3.10;1.77;;;5.30;99.90;;;;;;4976943;29;20475;-57
2023/02/02 04:27:16;;;;;;;14.33;1.70;;;5.40;99.90;;;;;;4977162;29;20487;-54
2023/02/02 04:29:43;;;;;;;2.40;1.00;;;5.40;99.90;;;;;;4977365;29;20476;-55
2023/02/02 04:32:10;;;;;;;3.03;1.03;;;5.40;99.90;;;;;;4977147;29;20474;-55
2023/02/02 04:34:37;;;;;;;3.90;0.73;;;5.40;99.90;;;;;;4976898;29;20459;-56
2023/02/02 04:37:03;;;;;;;6.00;1.80;;;5.40;99.90;;;;;;4977166;29;20454;-57
2023/02/02 04:39:30;;;;;;;3.50;1.23;;;5.30;99.90;;;;;;4977286;29;20499;-56
2023/02/02 04:41:57;;;;;;;4.30;0.83;;;5.30;99.90;;;;;;4976897;29;20424;-53
2023/02/02 04:44:26;;;;;;;4.23;1.97;;;5.30;99.90;;;;;;4976905;29;20451;-54
2023/02/02 04:46:54;;;;;;;8.30;0.80;;;5.30;99.90;;;;;;4977289;29;20455;-58
2023/02/02 04:49:24;;;;;;;1.37;0.90;;;5.40;99.90;;;;;;4977089;29;20463;-54
2023/02/02 04:51:51;;;;;;;4.63;1.10;;;5.40;99.90;;;;;;4977166;29;21021;-54
2023/02/02 04:54:18;;;;;;;1.90;0.80;;;5.40;99.90;;;;;;4976470;29;20460;-56
2023/02/02 04:56:45;;;;;;;4.27;1.70;;;5.40;99.90;;;;;;4976733;29;20435;-55
2023/02/02 04:59:12;;;;;;;6.77;1.70;;;5.50;99.90;;;;;;4977450;28;20518;-56
2023/02/02 05:01:43;;;;;;;5.43;1.27;;;5.40;99.90;;;;;;4980533;29;20980;-55
2023/02/02 05:04:11;;;;;;;3.67;1.50;;;5.40;99.90;;;;;;4980367;29;20478;-56
2023/02/02 05:06:38;;;;;;;3.37;1.90;;;5.40;99.90;;;;;;4980242;29;20455;-56
2023/02/02 05:09:05;;;;;;;6.93;1.93;;;5.50;99.90;;;;;;4980211;29;20444;-56
2023/02/02 05:11:32;;;;;;;1.67;1.33;;;5.50;99.90;;;;;;4980225;29;20518;-56
2023/02/02 05:14:01;;;;;;;7.43;1.47;;;5.50;99.90;;;;;;4980368;29;21020;-56
2023/02/02 05:16:31;;;;;;;6.63;2.20;;;5.50;99.90;;;;;;4979931;29;20451;-56
2023/02/02 05:18:59;;;;;;;2.90;1.00;;;5.50;99.90;;;;;;4980263;29;20481;-50
2023/02/02 05:21:26;;;;;;;5.00;2.10;;;5.40;99.90;;;;;;4979891;29;20451;-53
2023/02/02 05:23:53;;;;;;;3.23;1.20;;;5.40;99.90;;;;;;4979537;29;20420;-55
2023/02/02 05:26:23;;;;;;;2.57;1.07;;;5.40;99.90;;;;;;4979770;29;20468;-57
2023/02/02 05:28:50;;;;;;;4.40;1.17;;;5.40;99.90;;;;;;4979798;29;20498;-55
2023/02/02 05:31:20;;;;;;;1.90;0.93;;;5.40;99.90;;;;;;4979242;29;20423;-57
2023/02/02 05:33:47;;;;;;;7.73;1.60;;;5.40;99.90;;;;;;4979587;29;20510;-56
2023/02/02 05:36:15;;;;;;;4.43;1.10;;;5.30;99.90;;;;;;4979461;29;20448;-55
2023/02/02 05:38:44;;;;;;;5.60;3.27;;;5.40;99.90;;;;;;4979573;29;20468;-54
2023/02/02 05:41:12;;;;;;;3.57;0.87;;;5.40;99.90;;;;;;4979062;29;20499;-55
2023/02/02 05:43:39;;;;;;;5.30;1.40;;;5.40;99.90;;;;;;4979558;29;20466;-54
2023/02/02 05:46:06;;;;;;;3.50;2.00;;;5.40;99.90;;;;;;4979418;29;20479;-55
2023/02/02 05:48:33;;;;;;;3.27;1.10;;;5.40;99.90;;;;;;4979390;29;20451;-57
2023/02/02 05:51:03;;;;;;;3.80;1.43;;;5.40;99.90;;;;;;4979556;29;20443;-55
2023/02/02 05:53:32;;;;;;;6.33;2.10;;;5.40;99.90;;;;;;4979099;29;20439;-54
2023/02/02 05:55:59;;;;;;;3.27;1.23;;;5.40;99.90;;;;;;4979357;29;20444;-58
2023/02/02 05:58:28;;;;;;;6.83;1.40;;;5.50;99.90;;;;;;4979456;29;20496;-57
2023/02/02 06:00:55;;;;;;;6.90;1.60;;;5.50;99.90;;;;;;4979056;29;20508;-54
2023/02/02 06:03:43;;;;;;;10.60;1.80;;;5.50;99.90;;;;;;4979170;29;20474;-56
2023/02/02 06:06:10;;;;;;;2.60;1.33;;;5.50;99.90;;;;;;4974605;29;20469;-56
2023/02/02 06:08:40;;;;;;;6.00;1.07;;;5.50;99.90;;;;;;4979186;29;20440;-55
2023/02/02 06:11:16;;;;;;;10.20;1.23;;;5.50;99.90;;;;;;4978209;28;20534;-52
2023/02/02 06:13:43;;;;;;;6.57;1.30;;;5.50;99.90;;;;;;4979300;29;20434;-56
2023/02/02 06:16:10;;;;;;;3.07;1.23;;;5.50;99.90;;;;;;4978709;29;20440;-54
2023/02/02 06:18:39;;;;;;;4.30;1.30;;;5.60;99.90;;;;;;4980206;29;20439;-53
2023/02/02 06:21:06;;;;;;;6.73;1.80;;;5.60;99.90;;;;;;4979229;29;20515;-55
2023/02/02 06:23:34;;;;;;;4.37;1.83;;;5.60;99.90;;;;;;4979023;29;20503;-56
2023/02/02 06:26:07;;;;;;;1.50;1.03;;;5.50;99.90;;;;;;4978781;29;20451;-54
2023/02/02 06:28:34;;;;;;;2.80;1.10;;;5.50;99.90;;;;;;4978346;29;20467;-50
2023/02/02 06:31:04;;;;;;;2.30;1.03;;;5.50;99.90;;;;;;4978546;29;20428;-55
2023/02/02 06:33:33;;;;;;;4.93;1.17;;;5.50;99.90;;;;;;4978048;29;20444;-54
2023/02/02 06:36:01;;;;;;;1.70;0.87;;;5.50;99.90;;;;;;4978149;29;20499;-54
2023/02/02 06:38:28;;;;;;;13.13;1.57;;;5.50;99.90;;;;;;4978694;29;20472;-56
2023/02/02 06:40:55;;;;;;;2.83;0.73;;;5.50;99.90;;;;;;4977915;29;20517;-56
2023/02/02 06:43:25;;;;;;;7.50;1.93;;;5.50;99.90;;;;;;4961739;29;20551;-52
2023/02/02 06:45:52;;;;;;;15.77;4.33;;;5.50;99.90;;;;;;4963421;29;20428;-55
2023/02/02 06:48:19;;;;;;;12.10;4.70;;;5.50;99.90;;;;;;4966241;29;20486;-53
2023/02/02 06:50:46;;;;;;;7.50;1.77;;;5.50;99.90;;;;;;4967303;29;20478;-54
2023/02/02 06:53:13;;;;;;;3.67;1.10;;;5.50;99.90;;;;;;4967345;29;20503;-54
2023/02/02 06:55:40;;;;;;;5.43;2.50;;;5.50;99.90;;;;;;4965629;29;20476;-56
2023/02/02 06:58:07;;;;;;;6.13;1.57;;;5.50;99.90;;;;;;4972638;29;20488;-56
2023/02/02 07:00:37;;;;;;;1.67;1.53;;;5.50;99.90;;;;;;4979162;29;20479;-52
2023/02/02 07:03:04;;;;;;;5.70;1.53;;;5.50;99.90;;;;;;4979832;29;20438;-55
2023/02/02 07:05:30;;;;;;;1.40;1.17;;;5.50;99.90;;;;;;4980044;29;20455;-56
2023/02/02 07:07:57;;;;;;;18.53;1.50;;;5.60;99.90;;;;;;4978865;29;20448;-55
2023/02/02 07:10:25;;;;;;;3.47;1.50;;;5.60;99.90;;;;;;4978749;29;20456;-55
2023/02/02 07:12:54;;;;;;;2.20;1.20;;;5.60;99.90;;;;;;4978792;29;20423;-55
2023/02/02 07:15:21;;;;;;;3.23;1.23;;;5.60;99.90;;;;;;4978805;29;20435;-52
2023/02/02 07:17:49;;;;;;;3.93;1.30;;;5.50;99.90;;;;;;4978455;29;20448;-57
2023/02/02 07:20:16;;;;;;;3.90;1.93;;;5.60;99.90;;;;;;4978427;29;20491;-57
2023/02/02 07:22:43;;;;;;;11.20;2.67;;;5.60;99.90;;;;;;4976731;28;20463;-53
2023/02/02 07:25:15;;;;;;;2.70;1.37;;;5.60;99.90;;;;;;4965752;29;20466;-54
2023/02/02 07:27:42;;;;;;;2.10;1.50;;;5.60;99.90;;;;;;4967945;29;20838;-55
2023/02/02 07:30:12;;;;;;;3.13;1.73;;;5.70;99.90;;;;;;4967309;29;20436;-55
2023/02/02 07:32:38;;;;;;;15.73;1.80;;;5.70;99.90;;;;;;4973552;29;20448;-51
2023/02/02 07:35:07;;;;;;;4.83;1.60;;;5.70;99.90;;;;;;4974402;29;20492;-52
2023/02/02 07:37:34;;;;;;;2.87;1.53;;;5.70;99.90;;;;;;4974644;29;20444;-54
2023/02/02 07:40:01;;;;;;;9.00;2.20;;;5.70;99.90;;;;;;4974675;29;20530;-54
2023/02/02 07:42:28;;;;;;;11.83;1.43;;;5.60;99.90;;;;;;4974495;29;20443;-55
2023/02/02 07:44:54;;;;;;;4.20;1.20;;;5.60;99.90;;;;;;4974555;29;20471;-56
2023/02/02 07:47:21;;;;;;;3.33;1.50;;;5.60;99.90;;;;;;4974952;29;20443;-56
2023/02/02 07:49:50;;;;;;;11.57;2.07;;;5.50;99.90;;;;;;4974718;29;20444;-54
2023/02/02 07:52:18;;;;;;;9.07;2.27;;;5.50;99.90;;;;;;4973590;29;20443;-51
2023/02/02 07:54:46;;;;;;;2.33;1.40;;;5.40;99.90;;;;;;4974781;29;20455;-53
2023/02/02 07:57:13;;;;;;;8.70;1.30;;;5.50;99.90;;;;;;4974329;29;20472;-54
2023/02/02 07:59:40;;;;;;;2.53;1.03;;;5.50;99.90;;;;;;4972474;29;20515;-54
2023/02/02 08:02:08;;;;;;;13.23;1.80;;;5.50;99.90;;;;;;4973348;29;20535;-56
2023/02/02 08:04:35;;;;;;;4.07;1.50;;;5.60;99.90;;;;;;4974353;29;20503;-56
2023/02/02 08:07:02;;;;;;;7.93;1.90;;;5.60;99.90;;;;;;4973714;29;20440;-58
2023/02/02 08:09:31;;;;;;;2.40;1.10;;;5.70;99.90;;;;;;4974641;29;20478;-56
2023/02/02 08:12:01;;;;;;;13.90;1.83;;;5.70;99.90;;;;;;4974953;29;20447;-56
2023/02/02 08:14:28;;;;;;;1.37;1.13;;;5.70;99.90;;;;;;4974707;29;20486;-57
2023/02/02 08:16:55;;;;;;;12.27;1.60;;;5.70;99.90;;;;;;4975139;29;20922;-52
2023/02/02 08:19:22;;;;;;;8.50;2.00;;;5.70;99.90;;;;;;4974400;29;20914;-57
2023/02/02 08:21:48;;;;;;;14.97;4.67;;;5.70;99.90;;;;;;4974315;29;20491;-53
2023/02/02 08:24:15;;;;;;;2.63;1.87;;;5.70;99.90;;;;;;4974553;29;20447;-56
2023/02/02 08:26:43;;;;;;;7.13;1.60;;;5.70;99.90;;;;;;4974820;29;20483;-55
2023/02/02 08:29:15;;;;;;;9.80;3.30;;;5.60;99.90;;;;;;4975444;29;20476;-55
2023/02/02 08:31:44;;;;;;;6.53;2.60;;;5.70;99.90;;;;;;4974320;29;20467;-55
2023/02/02 08:34:11;;;;;;;3.73;1.17;;;5.70;99.90;;;;;;4974261;28;20526;-56
2023/02/02 08:36:38;;;;;;;8.40;1.67;;;5.70;99.90;;;;;;4978517;29;20451;-56
2023/02/02 08:39:08;;;;;;;7.97;2.53;;;5.80;99.90;;;;;;4979212;29;20432;-58
2023/02/02 08:41:36;;;;;;;18.23;3.93;;;5.90;99.90;;;;;;4978758;29;20494;-56
2023/02/02 08:44:06;;;;;;;5.63;1.90;;;5.90;99.90;;;;;;4975680;29;20458;-56
2023/02/02 08:46:33;;;;;;;8.90;2.80;;;6.10;99.90;;;;;;4975116;29;20455;-54
2023/02/02 08:49:00;;;;;;;5.10;1.53;;;6.20;99.90;;;;;;4975397;29;20459;-57
2023/02/02 08:51:27;;;;;;;3.13;1.23;;;6.10;99.90;;;;;;4975714;29;20443;-55
2023/02/02 08:53:54;;;;;;;4.40;1.23;;;6.10;99.90;;;;;;4976125;29;20507;-54
2023/02/02 08:56:22;;;;;;;4.03;1.40;;;6.20;99.90;;;;;;4975177;29;20459;-54
2023/02/02 08:58:50;;;;;;;4.20;2.60;;;6.20;99.90;;;;;;4976935;29;20478;-56
2023/02/02 09:01:20;;;;;;;5.13;1.60;;;6.10;99.90;;;;;;4977204;29;20487;-57
2023/02/02 09:03:48;;;;;;;3.67;1.47;;;6.20;99.90;;;;;;4976940;29;20500;-55
2023/02/02 09:06:16;;;;;;;3.33;1.37;;;6.20;99.90;;;;;;4976756;29;20443;-56
2023/02/02 09:08:44;;;;;;;5.47;1.03;;;6.20;99.90;;;;;;4976923;29;20474;-55
2023/02/02 09:11:12;;;;;;;6.90;1.80;;;6.40;99.90;;;;;;4975139;29;20487;-54
2023/02/02 09:13:40;;;;;;;4.90;1.83;;;6.40;99.90;;;;;;4975713;29;20447;-55
2023/02/02 09:16:10;;;;;;;6.10;1.73;;;6.50;99.90;;;;;;4976227;29;20468;-55
2023/02/02 09:18:39;;;;;;;1.30;0.87;;;6.50;99.90;;;;;;4975148;29;20447;-57
2023/02/02 09:21:08;;;;;;;6.43;2.67;;;6.50;99.90;;;;;;4975814;29;20498;-53
2023/02/02 09:23:37;;;;;;;7.27;2.40;;;6.60;99.90;;;;;;4975342;29;20454;-55
2023/02/02 09:26:11;;;;;;;3.47;1.67;;;6.70;99.90;;;;;;4973451;29;21052;-57
2023/02/02 09:28:39;;;;;;;9.03;2.83;;;6.70;99.90;;;;;;4974647;29;20448;-57
2023/02/02 09:31:07;;;;;;;3.57;1.40;;;6.60;99.90;;;;;;4972972;29;20471;-57
2023/02/02 09:33:34;;;;;;;5.73;1.20;;;6.70;99.90;;;;;;4974372;29;20420;-56
2023/02/02 09:36:07;;;;;;;3.07;0.90;;;6.70;99.90;;;;;;4973793;29;20535;-57
2023/02/02 09:38:34;;;;;;;1.30;0.77;;;6.70;99.90;;;;;;4974388;29;20455;-56
2023/02/02 09:41:10;;;;;;;4.70;1.63;;;6.80;99.90;;;;;;4974362;29;20517;-55
2023/02/02 09:43:49;;;;;;;3.63;1.10;;;6.80;99.90;;;;;;4973927;29;20518;-57
2023/02/02 09:46:27;;;;;;;7.20;1.40;;;6.80;99.90;;;;;;4972621;28;20467;-54
2023/02/02 09:49:00;;;;;;;5.80;1.73;;;6.90;99.90;;;;;;4970176;29;20490;-54
2023/02/02 09:51:35;;;;;;;3.30;1.40;;;7.10;99.90;;;;;;4971417;29;20439;-57
2023/02/02 09:54:06;;;;;;;2.40;1.43;;;6.80;99.90;;;;;;4970958;29;20571;-54
2023/02/02 09:56:39;;;;;;;1.47;0.90;;;7.60;99.90;;;;;;4971396;29;20453;-56
2023/02/02 09:59:22;;;;;;;2.70;1.30;;;7.50;99.90;;;;;;4969993;29;20487;-54
2023/02/02 10:01:54;;;;;;;5.83;1.40;;;7.50;99.90;;;;;;4971425;29;20468;-54
2023/02/02 10:04:27;;;;;;;5.57;1.30;;;7.30;99.90;;;;;;4972406;29;20428;-55
2023/02/02 10:07:00;;;;;;;2.60;1.17;;;7.20;99.90;;;;;;4971760;29;20495;-56
2023/02/02 10:09:34;;;;;;;1.27;1.17;;;7.20;99.90;;;;;;4972893;29;20436;-56
2023/02/02 10:12:06;;;;;;;1.77;1.13;;;7.20;99.90;;;;;;4972078;29;20972;-54
2023/02/02 10:14:39;;;;;;;3.67;1.37;;;7.10;99.90;;;;;;4972043;29;20451;-56
2023/02/02 10:17:15;;;;;;;4.53;0.80;;;7.10;99.90;;;;;;4971481;29;20464;-55
2023/02/02 10:19:43;;;;;;;1.23;0.80;;;7.10;99.90;;;;;;4970270;29;20476;-52
2023/02/02 10:22:16;;;;;;;6.23;1.70;;;7.10;99.90;;;;;;4970714;29;20528;-56
2023/02/02 10:24:43;;;;;;;2.10;1.13;;;7.10;99.90;;;;;;4970536;29;20499;-57
2023/02/02 10:27:15;;;;;;;6.50;1.30;;;7.20;99.90;;;;;;4970219;29;20480;-55
2023/02/02 10:29:53;;;;;;;5.53;1.40;;;7.30;99.90;;;;;;4970765;29;20475;-54
2023/02/02 10:32:24;;;;;;;7.10;1.60;;;7.20;99.90;;;;;;4970525;29;20424;-58
2023/02/02 10:35:05;;;;;;;6.40;1.77;;;7.70;99.90;;;;;;4969089;29;20455;-54
2023/02/02 10:37:39;;;;;;;3.30;0.97;;;8.40;99.90;;;;;;4967507;29;20459;-55
2023/02/02 10:40:19;;;;;;;8.53;1.70;;;9.00;99.90;;;;;;4966824;29;20475;-51
2023/02/02 10:45:51;;;;;;;6.73;1.20;;;9.40;99.90;;;;;;4967388;29;20411;-53
2023/02/02 10:48:22;;;;;;;6.00;1.50;;;9.40;99.90;;;;;;4967227;29;20460;-57
2023/02/02 10:50:54;;;;;;;6.63;1.30;;;9.80;99.90;;;;;;4965000;29;20530;-54
2023/02/02 10:53:26;;;;;;;4.70;1.70;;;10.40;99.90;;;;;;4964249;29;20431;-55
2023/02/02 10:55:58;;;;;;;5.73;1.73;;;10.50;99.90;;;;;;4964519;29;20535;-54
2023/02/02 10:58:30;;;;;;;2.27;1.30;;;10.30;99.90;;;;;;4963837;28;20448;-54
2023/02/02 11:01:00;;;;;;;5.20;2.20;;;10.30;99.90;;;;;;4964629;29;20538;-52
2023/02/02 11:03:29;;;;;;;4.03;1.20;;;10.40;99.90;;;;;;4964169;29;20472;-55
2023/02/02 11:08:46;;;;;;;3.37;1.00;;;10.00;99.90;;;;;;4967543;29;20407;-56
2023/02/02 11:11:18;;;;;;;3.10;1.20;;;9.30;99.90;;;;;;4966862;29;20522;-54
2023/02/02 11:13:51;;;;;;;2.83;0.93;;;8.90;99.90;;;;;;4967577;29;20528;-56
2023/02/02 11:16:20;;;;;;;1.50;1.00;;;8.50;99.90;;;;;;4967844;29;20435;-55
2023/02/02 11:18:47;;;;;;;11.47;1.50;;;8.40;99.90;;;;;;4967347;29;20531;-56
2023/02/02 11:21:23;;;;;;;2.33;1.10;;;8.30;99.90;;;;;;4967070;29;20479;-55
2023/02/02 11:23:59;;;;;;;2.70;1.53;;;8.10;99.90;;;;;;4968384;29;20503;-55
2023/02/02 11:26:27;;;;;;;2.00;1.20;;;7.90;99.90;;;;;;4968073;29;20479;-54
2023/02/02 11:28:55;;;;;;;4.80;1.50;;;7.80;99.90;;;;;;4967949;29;20506;-55
2023/02/02 11:31:36;;;;;;;6.00;1.73;;;7.90;99.90;;;;;;4967809;29;20512;-54
2023/02/02 11:34:19;;;;;;;2.17;1.20;;;7.90;99.90;;;;;;4967567;29;20502;-56
2023/02/02 11:37:01;;;;;;;11.90;1.57;;;8.00;99.90;;;;;;4968504;29;20471;-53
2023/02/02 11:39:29;;;;;;;1.70;1.03;;;8.00;99.90;;;;;;4968398;29;20468;-54
2023/02/02 11:42:01;;;;;;;9.73;1.73;;;7.80;99.90;;;;;;4968523;29;20467;-56
2023/02/02 11:44:31;;;;;;;2.00;1.03;;;7.80;99.90;;;;;;4968518;29;20447;-57
2023/02/02 11:47:00;;;;;;;1.43;1.00;;;7.90;99.90;;;;;;4967374;29;20474;-56
2023/02/02 11:49:28;;;;;;;1.77;0.80;;;7.90;99.90;;;;;;4968003;29;20524;-56
2023/02/02 11:52:00;;;;;;;9.30;1.63;;;7.90;99.90;;;;;;4968698;29;20526;-56
2023/02/02 11:54:31;;;;;;;2.90;1.10;;;7.90;99.90;;;;;;4968196;29;20447;-55
2023/02/02 11:57:00;;;;;;;2.40;1.07;;;7.90;99.90;;;;;;4967598;29;20503;-56
2023/02/02 11:59:33;;;;;;;6.17;1.87;;;8.00;99.90;;;;;;4967979;29;20475;-57
2023/02/02 12:02:24;;;;;;;8.53;2.20;;;8.00;99.90;;;;;;4967292;29;20587;-57
2023/02/02 12:04:54;;;;;;;5.13;1.90;;;8.00;99.90;;;;;;4968010;29;20479;-53
2023/02/02 12:07:26;;;;;;;3.40;1.27;;;7.90;99.90;;;;;;4968990;29;20475;-54
2023/02/02 12:09:59;;;;;;;3.43;1.30;;;7.80;99.90;;;;;;4969406;29;20439;-52
2023/02/02 12:12:39;;;;;;;1.40;1.10;;;7.60;99.90;;;;;;4969373;29;20512;-53
2023/02/02 12:15:28;;;;;;;2.50;1.03;;;7.50;99.90;;;;;;4968589;29;20522;-58
2023/02/02 12:18:02;;;;;;;24.53;1.87;;;7.50;99.90;;;;;;4968916;29;20471;-54
2023/02/02 12:20:40;;;;;;;7.23;1.93;;;7.30;99.90;;;;;;4969171;29;20452;-55
2023/02/02 12:23:25;;;;;;;2.40;1.33;;;7.10;99.90;;;;;;4969854;29;20468;-55
2023/02/02 12:26:10;;;;;;;9.33;1.43;;;6.90;99.90;;;;;;4970089;29;20443;-55
2023/02/02 12:28:49;;;;;;;10.07;1.03;;;6.80;99.90;;;;;;4970291;29;20460;-54
2023/02/02 12:31:25;;;;;;;3.40;1.10;;;6.60;99.90;;;;;;4969783;29;20960;-52
2023/02/02 12:33:56;;;;;;;1.10;0.70;;;6.50;99.90;;;;;;4971347;29;20431;-56
2023/02/02 12:36:30;;;;;;;2.13;0.80;;;6.30;99.90;;;;;;4973572;29;20511;-57
2023/02/02 12:39:21;;;;;;;5.43;1.20;;;6.20;99.90;;;;;;4973869;29;20435;-51
2023/02/02 12:42:26;;;;;;;2.80;2.00;;;6.10;99.90;;;;;;4971399;29;20980;-56
2023/02/02 12:45:15;;;;;;;2.70;0.93;;;6.30;99.90;;;;;;4954172;29;20475;-54
2023/02/02 12:47:53;;;;;;;2.63;1.10;;;6.60;99.90;;;;;;4969205;29;20503;-56
2023/02/02 12:50:30;;;;;;;3.70;1.20;;;6.80;99.90;;;;;;4969089;29;20480;-53
2023/02/02 12:53:10;;;;;;;3.40;1.10;;;6.90;99.90;;;;;;4969266;29;20506;-55
2023/02/02 12:55:43;;;;;;;1.83;0.93;;;6.90;99.90;;;;;;4970190;29;20452;-54
2023/02/02 12:58:22;;;;;;;1.57;0.70;;;6.90;99.90;;;;;;4969722;29;20477;-55
2023/02/02 13:01:14;;;;;;;9.03;1.30;;;6.90;99.90;;;;;;4968797;29;20470;-56
2023/02/02 13:04:00;;;;;;;6.20;3.10;;;6.90;99.90;;;;;;4968601;29;20463;-52
2023/02/02 13:06:53;;;;;;;3.77;1.00;;;6.90;99.90;;;;;;4968803;29;20464;-51
2023/02/02 13:09:27;;;;;;;1.47;0.83;;;7.00;99.90;;;;;;4968903;29;20567;-55
2023/02/02 13:11:59;;;;;;;3.87;1.50;;;7.00;99.90;;;;;;4969097;29;20483;-56
2023/02/02 13:14:31;;;;;;;1.80;1.00;;;7.00;99.90;;;;;;4969052;29;20483;-56
2023/02/02 13:17:07;;;;;;;2.30;1.33;;;7.10;99.90;;;;;;4969336;29;20436;-56
2023/02/02 13:19:37;;;;;;;3.00;0.90;;;7.10;99.90;;;;;;4967863;28;20502;-56
2023/02/02 13:22:07;;;;;;;3.13;1.13;;;7.10;99.90;;;;;;4971828;29;20511;-57
2023/02/02 13:24:38;;;;;;;3.43;0.90;;;7.20;99.90;;;;;;4971953;29;20917;-55
2023/02/02 13:27:10;;;;;;;3.23;1.33;;;7.20;99.90;;;;;;4972056;29;20440;-55
2023/02/02 13:29:44;;;;;;;1.90;1.00;;;7.20;99.90;;;;;;4972375;29;20435;-56